sensor_id;sensor_type;location;lat;lon;timestamp;P1;durP1;ratioP1;P2;durP2;ratioP2
17598;SDS011;8918;52.092;5.232;2023-01-15T00:00:19;7.27;;;2.10;;
17598;SDS011;8918;52.092;5.232;2023-01-15T00:02:45;11.47;;;2.10;;
17598;SDS011;8918;52.092;5.232;2023-01-15T00:05:10;10.07;;;2.00;;
17598;SDS011;8918;52.092;5.232;2023-01-15T00:07:36;8.33;;;1.87;;
17598;SDS011;8918;52.092;5.232;2023-01-15T00:10:01;11.63;;;1.80;;
17598;SDS011;8918;52.092;5.232;2023-01-15T00:12:27;11.97;;;2.00;;
17598;SDS011;8918;52.092;5.232;2023-01-15T00:14:53;11.53;;;1.70;;
17598;SDS011;8918;52.092;5.232;2023-01-15T00:17:18;9.50;;;2.30;;
17598;SDS011;8918;52.092;5.232;2023-01-15T00:19:45;9.20;;;2.10;;
17598;SDS011;8918;52.092;5.232;2023-01-15T00:22:11;9.43;;;2.40;;
17598;SDS011;8918;52.092;5.232;2023-01-15T00:24:36;7.80;;;2.43;;
17598;SDS011;8918;52.092;5.232;2023-01-15T00:27:20;11.90;;;2.03;;
17598;SDS011;8918;52.092;5.232;2023-01-15T00:30:05;8.93;;;2.10;;
17598;SDS011;8918;52.092;5.232;2023-01-15T00:32:34;7.93;;;2.00;;
17598;SDS011;8918;52.092;5.232;2023-01-15T00:34:59;8.83;;;1.90;;
17598;SDS011;8918;52.092;5.232;2023-01-15T00:37:25;8.90;;;1.80;;
17598;SDS011;8918;52.092;5.232;2023-01-15T00:39:51;9.87;;;2.13;;
17598;SDS011;8918;52.092;5.232;2023-01-15T00:42:16;10.57;;;1.97;;
17598;SDS011;8918;52.092;5.232;2023-01-15T00:44:42;9.67;;;2.00;;
17598;SDS011;8918;52.092;5.232;2023-01-15T00:47:08;14.27;;;2.83;;
17598;SDS011;8918;52.092;5.232;2023-01-15T00:49:38;15.40;;;2.53;;
17598;SDS011;8918;52.092;5.232;2023-01-15T00:52:08;11.77;;;2.10;;
17598;SDS011;8918;52.092;5.232;2023-01-15T00:54:34;11.43;;;2.40;;
17598;SDS011;8918;52.092;5.232;2023-01-15T00:57:00;16.10;;;2.57;;
17598;SDS011;8918;52.092;5.232;2023-01-15T00:59:27;10.03;;;2.10;;
17598;SDS011;8918;52.092;5.232;2023-01-15T01:01:52;9.53;;;2.10;;
17598;SDS011;8918;52.092;5.232;2023-01-15T01:04:18;12.67;;;2.40;;
17598;SDS011;8918;52.092;5.232;2023-01-15T01:06:44;10.80;;;2.07;;
17598;SDS011;8918;52.092;5.232;2023-01-15T01:09:12;8.73;;;1.83;;
17598;SDS011;8918;52.092;5.232;2023-01-15T01:11:41;9.27;;;1.90;;
17598;SDS011;8918;52.092;5.232;2023-01-15T01:14:08;10.53;;;2.60;;
17598;SDS011;8918;52.092;5.232;2023-01-15T01:16:35;9.33;;;2.03;;
17598;SDS011;8918;52.092;5.232;2023-01-15T01:19:06;7.90;;;1.90;;
17598;SDS011;8918;52.092;5.232;2023-01-15T01:21:43;10.80;;;2.07;;
17598;SDS011;8918;52.092;5.232;2023-01-15T01:24:11;18.27;;;2.73;;
17598;SDS011;8918;52.092;5.232;2023-01-15T01:26:39;9.53;;;2.10;;
17598;SDS011;8918;52.092;5.232;2023-01-15T01:29:05;10.70;;;1.90;;
17598;SDS011;8918;52.092;5.232;2023-01-15T01:31:31;13.67;;;2.27;;
17598;SDS011;8918;52.092;5.232;2023-01-15T01:33:57;15.70;;;2.37;;
17598;SDS011;8918;52.092;5.232;2023-01-15T01:36:31;12.07;;;2.20;;
17598;SDS011;8918;52.092;5.232;2023-01-15T01:38:58;13.77;;;2.93;;
17598;SDS011;8918;52.092;5.232;2023-01-15T01:41:25;12.37;;;2.63;;
17598;SDS011;8918;52.092;5.232;2023-01-15T01:46:31;11.27;;;2.00;;
17598;SDS011;8918;52.092;5.232;2023-01-15T01:49:02;10.20;;;1.90;;
17598;SDS011;8918;52.092;5.232;2023-01-15T01:51:36;8.40;;;1.77;;
17598;SDS011;8918;52.092;5.232;2023-01-15T01:54:06;11.43;;;2.77;;
17598;SDS011;8918;52.092;5.232;2023-01-15T01:56:35;10.90;;;2.00;;
17598;SDS011;8918;52.092;5.232;2023-01-15T01:59:01;9.00;;;2.00;;
17598;SDS011;8918;52.092;5.232;2023-01-15T02:01:27;15.43;;;2.43;;
17598;SDS011;8918;52.092;5.232;2023-01-15T02:03:53;10.53;;;2.30;;
17598;SDS011;8918;52.092;5.232;2023-01-15T02:06:19;11.50;;;2.10;;
17598;SDS011;8918;52.092;5.232;2023-01-15T02:08:46;7.90;;;1.93;;
17598;SDS011;8918;52.092;5.232;2023-01-15T02:11:14;9.43;;;2.20;;
17598;SDS011;8918;52.092;5.232;2023-01-15T02:21:22;9.23;;;2.07;;
17598;SDS011;8918;52.092;5.232;2023-01-15T02:24:05;9.63;;;2.07;;
17598;SDS011;8918;52.092;5.232;2023-01-15T02:32:28;8.70;;;2.37;;
17598;SDS011;8918;52.092;5.232;2023-01-15T02:35:01;9.03;;;1.60;;
17598;SDS011;8918;52.092;5.232;2023-01-15T02:37:36;13.20;;;2.23;;
17598;SDS011;8918;52.092;5.232;2023-01-15T02:40:06;11.20;;;1.73;;
17598;SDS011;8918;52.092;5.232;2023-01-15T02:42:33;12.03;;;2.03;;
17598;SDS011;8918;52.092;5.232;2023-01-15T02:45:01;10.97;;;1.93;;
17598;SDS011;8918;52.092;5.232;2023-01-15T02:47:30;8.70;;;1.80;;
17598;SDS011;8918;52.092;5.232;2023-01-15T02:50:01;11.97;;;2.17;;
17598;SDS011;8918;52.092;5.232;2023-01-15T02:52:31;14.73;;;2.50;;
17598;SDS011;8918;52.092;5.232;2023-01-15T02:55:23;11.00;;;2.10;;
17598;SDS011;8918;52.092;5.232;2023-01-15T02:57:49;10.27;;;2.13;;
17598;SDS011;8918;52.092;5.232;2023-01-15T03:00:18;11.10;;;2.10;;
17598;SDS011;8918;52.092;5.232;2023-01-15T03:02:49;7.97;;;1.90;;
17598;SDS011;8918;52.092;5.232;2023-01-15T03:05:21;10.33;;;2.00;;
17598;SDS011;8918;52.092;5.232;2023-01-15T03:07:54;8.53;;;2.10;;
17598;SDS011;8918;52.092;5.232;2023-01-15T03:10:31;16.43;;;2.00;;
17598;SDS011;8918;52.092;5.232;2023-01-15T03:13:09;8.80;;;2.00;;
17598;SDS011;8918;52.092;5.232;2023-01-15T03:15:52;12.63;;;2.10;;
17598;SDS011;8918;52.092;5.232;2023-01-15T03:18:47;5.00;;;1.60;;
17598;SDS011;8918;52.092;5.232;2023-01-15T03:21:20;7.27;;;1.70;;
17598;SDS011;8918;52.092;5.232;2023-01-15T03:23:52;7.60;;;1.77;;
17598;SDS011;8918;52.092;5.232;2023-01-15T03:26:20;13.90;;;3.00;;
17598;SDS011;8918;52.092;5.232;2023-01-15T03:28:46;8.20;;;1.80;;
17598;SDS011;8918;52.092;5.232;2023-01-15T03:31:13;7.40;;;1.50;;
17598;SDS011;8918;52.092;5.232;2023-01-15T03:33:40;11.83;;;2.07;;
17598;SDS011;8918;52.092;5.232;2023-01-15T03:36:06;6.27;;;1.53;;
17598;SDS011;8918;52.092;5.232;2023-01-15T03:38:33;9.63;;;2.03;;
17598;SDS011;8918;52.092;5.232;2023-01-15T03:43:47;13.00;;;2.03;;
17598;SDS011;8918;52.092;5.232;2023-01-15T03:49:24;10.50;;;1.90;;
17598;SDS011;8918;52.092;5.232;2023-01-15T03:52:29;11.30;;;1.93;;
17598;SDS011;8918;52.092;5.232;2023-01-15T04:00:10;9.17;;;1.53;;
17598;SDS011;8918;52.092;5.232;2023-01-15T04:02:58;10.47;;;2.23;;
17598;SDS011;8918;52.092;5.232;2023-01-15T04:05:25;7.83;;;1.90;;
17598;SDS011;8918;52.092;5.232;2023-01-15T04:07:53;9.03;;;1.80;;
17598;SDS011;8918;52.092;5.232;2023-01-15T04:10:20;8.50;;;2.30;;
17598;SDS011;8918;52.092;5.232;2023-01-15T04:12:46;9.20;;;2.20;;
17598;SDS011;8918;52.092;5.232;2023-01-15T04:15:13;9.70;;;1.93;;
17598;SDS011;8918;52.092;5.232;2023-01-15T04:17:39;8.40;;;1.57;;
17598;SDS011;8918;52.092;5.232;2023-01-15T04:20:05;11.23;;;2.10;;
17598;SDS011;8918;52.092;5.232;2023-01-15T04:22:31;7.37;;;2.13;;
17598;SDS011;8918;52.092;5.232;2023-01-15T04:24:57;8.07;;;1.70;;
17598;SDS011;8918;52.092;5.232;2023-01-15T04:27:23;7.30;;;2.00;;
17598;SDS011;8918;52.092;5.232;2023-01-15T04:29:48;11.03;;;2.43;;
17598;SDS011;8918;52.092;5.232;2023-01-15T04:32:14;8.50;;;1.80;;
17598;SDS011;8918;52.092;5.232;2023-01-15T04:34:39;8.80;;;1.77;;
17598;SDS011;8918;52.092;5.232;2023-01-15T04:37:05;6.03;;;1.80;;
17598;SDS011;8918;52.092;5.232;2023-01-15T04:39:31;8.33;;;2.53;;
17598;SDS011;8918;52.092;5.232;2023-01-15T04:41:57;7.50;;;1.77;;
17598;SDS011;8918;52.092;5.232;2023-01-15T04:44:41;12.73;;;2.00;;
17598;SDS011;8918;52.092;5.232;2023-01-15T04:47:07;7.30;;;1.63;;
17598;SDS011;8918;52.092;5.232;2023-01-15T04:49:33;10.30;;;1.87;;
17598;SDS011;8918;52.092;5.232;2023-01-15T04:51:58;10.10;;;2.00;;
17598;SDS011;8918;52.092;5.232;2023-01-15T04:54:24;7.43;;;1.53;;
17598;SDS011;8918;52.092;5.232;2023-01-15T04:56:51;8.30;;;2.60;;
17598;SDS011;8918;52.092;5.232;2023-01-15T04:59:19;6.13;;;1.80;;
17598;SDS011;8918;52.092;5.232;2023-01-15T05:01:48;9.27;;;2.00;;
17598;SDS011;8918;52.092;5.232;2023-01-15T05:04:14;6.60;;;1.87;;
17598;SDS011;8918;52.092;5.232;2023-01-15T05:06:40;11.63;;;1.90;;
17598;SDS011;8918;52.092;5.232;2023-01-15T05:09:06;7.13;;;1.60;;
17598;SDS011;8918;52.092;5.232;2023-01-15T05:11:33;6.93;;;1.70;;
17598;SDS011;8918;52.092;5.232;2023-01-15T05:14:04;7.80;;;2.03;;
17598;SDS011;8918;52.092;5.232;2023-01-15T05:16:31;8.50;;;1.90;;
17598;SDS011;8918;52.092;5.232;2023-01-15T05:18:58;6.53;;;1.70;;
17598;SDS011;8918;52.092;5.232;2023-01-15T05:21:26;6.97;;;1.60;;
17598;SDS011;8918;52.092;5.232;2023-01-15T05:23:55;8.57;;;1.60;;
17598;SDS011;8918;52.092;5.232;2023-01-15T05:26:23;8.77;;;1.83;;
17598;SDS011;8918;52.092;5.232;2023-01-15T05:28:51;9.97;;;2.07;;
17598;SDS011;8918;52.092;5.232;2023-01-15T05:31:18;8.10;;;1.73;;
17598;SDS011;8918;52.092;5.232;2023-01-15T05:33:44;7.63;;;1.53;;
17598;SDS011;8918;52.092;5.232;2023-01-15T05:36:12;6.57;;;1.90;;
17598;SDS011;8918;52.092;5.232;2023-01-15T05:38:39;7.97;;;2.20;;
17598;SDS011;8918;52.092;5.232;2023-01-15T05:41:15;9.87;;;2.10;;
17598;SDS011;8918;52.092;5.232;2023-01-15T05:44:01;9.83;;;1.87;;
17598;SDS011;8918;52.092;5.232;2023-01-15T05:46:33;11.30;;;2.60;;
17598;SDS011;8918;52.092;5.232;2023-01-15T05:49:00;9.33;;;1.90;;
17598;SDS011;8918;52.092;5.232;2023-01-15T05:51:28;10.93;;;1.73;;
17598;SDS011;8918;52.092;5.232;2023-01-15T05:53:55;7.77;;;1.90;;
17598;SDS011;8918;52.092;5.232;2023-01-15T05:56:21;5.03;;;1.57;;
17598;SDS011;8918;52.092;5.232;2023-01-15T05:58:48;11.47;;;2.10;;
17598;SDS011;8918;52.092;5.232;2023-01-15T06:01:14;9.23;;;1.53;;
17598;SDS011;8918;52.092;5.232;2023-01-15T06:03:40;9.13;;;1.73;;
17598;SDS011;8918;52.092;5.232;2023-01-15T06:06:05;7.90;;;1.30;;
17598;SDS011;8918;52.092;5.232;2023-01-15T06:08:35;9.57;;;1.73;;
17598;SDS011;8918;52.092;5.232;2023-01-15T06:11:01;9.30;;;1.87;;
17598;SDS011;8918;52.092;5.232;2023-01-15T06:13:26;8.63;;;1.80;;
17598;SDS011;8918;52.092;5.232;2023-01-15T06:15:52;9.47;;;1.80;;
17598;SDS011;8918;52.092;5.232;2023-01-15T06:18:17;8.53;;;1.73;;
17598;SDS011;8918;52.092;5.232;2023-01-15T06:20:43;9.63;;;1.87;;
17598;SDS011;8918;52.092;5.232;2023-01-15T06:23:08;5.83;;;1.47;;
17598;SDS011;8918;52.092;5.232;2023-01-15T06:25:34;8.53;;;1.80;;
17598;SDS011;8918;52.092;5.232;2023-01-15T06:28:02;5.60;;;1.40;;
17598;SDS011;8918;52.092;5.232;2023-01-15T06:30:28;7.57;;;1.30;;
17598;SDS011;8918;52.092;5.232;2023-01-15T06:32:54;7.97;;;2.20;;
17598;SDS011;8918;52.092;5.232;2023-01-15T06:35:19;13.83;;;2.17;;
17598;SDS011;8918;52.092;5.232;2023-01-15T06:37:45;7.03;;;1.70;;
17598;SDS011;8918;52.092;5.232;2023-01-15T06:40:12;8.83;;;1.70;;
17598;SDS011;8918;52.092;5.232;2023-01-15T06:42:38;9.47;;;2.23;;
17598;SDS011;8918;52.092;5.232;2023-01-15T06:45:22;7.20;;;1.83;;
17598;SDS011;8918;52.092;5.232;2023-01-15T06:48:07;6.83;;;1.50;;
17598;SDS011;8918;52.092;5.232;2023-01-15T06:50:32;6.90;;;1.40;;
17598;SDS011;8918;52.092;5.232;2023-01-15T06:52:58;9.83;;;1.90;;
17598;SDS011;8918;52.092;5.232;2023-01-15T06:55:23;7.43;;;1.90;;
17598;SDS011;8918;52.092;5.232;2023-01-15T06:57:49;8.67;;;1.57;;
17598;SDS011;8918;52.092;5.232;2023-01-15T07:00:14;8.07;;;1.80;;
17598;SDS011;8918;52.092;5.232;2023-01-15T07:02:40;7.03;;;1.60;;
17598;SDS011;8918;52.092;5.232;2023-01-15T07:05:06;11.27;;;1.93;;
17598;SDS011;8918;52.092;5.232;2023-01-15T07:07:32;6.13;;;1.77;;
17598;SDS011;8918;52.092;5.232;2023-01-15T07:09:58;5.60;;;1.50;;
17598;SDS011;8918;52.092;5.232;2023-01-15T07:12:24;8.27;;;1.40;;
17598;SDS011;8918;52.092;5.232;2023-01-15T07:14:50;6.53;;;1.50;;
17598;SDS011;8918;52.092;5.232;2023-01-15T07:17:15;9.40;;;1.90;;
17598;SDS011;8918;52.092;5.232;2023-01-15T07:19:41;8.70;;;1.50;;
17598;SDS011;8918;52.092;5.232;2023-01-15T07:22:08;6.17;;;1.77;;
17598;SDS011;8918;52.092;5.232;2023-01-15T07:24:34;6.93;;;1.40;;
17598;SDS011;8918;52.092;5.232;2023-01-15T07:26:59;6.37;;;1.70;;
17598;SDS011;8918;52.092;5.232;2023-01-15T07:29:25;6.03;;;1.50;;
17598;SDS011;8918;52.092;5.232;2023-01-15T07:31:51;9.27;;;1.50;;
17598;SDS011;8918;52.092;5.232;2023-01-15T07:34:16;8.43;;;2.23;;
17598;SDS011;8918;52.092;5.232;2023-01-15T07:36:42;7.87;;;1.63;;
17598;SDS011;8918;52.092;5.232;2023-01-15T07:39:08;6.53;;;1.40;;
17598;SDS011;8918;52.092;5.232;2023-01-15T07:41:35;4.73;;;1.23;;
17598;SDS011;8918;52.092;5.232;2023-01-15T07:44:20;9.57;;;2.13;;
17598;SDS011;8918;52.092;5.232;2023-01-15T07:47:24;9.77;;;1.73;;
17598;SDS011;8918;52.092;5.232;2023-01-15T07:50:11;4.87;;;1.20;;
17598;SDS011;8918;52.092;5.232;2023-01-15T07:52:42;5.90;;;1.43;;
17598;SDS011;8918;52.092;5.232;2023-01-15T07:55:08;10.90;;;1.73;;
17598;SDS011;8918;52.092;5.232;2023-01-15T07:57:36;6.27;;;1.47;;
17598;SDS011;8918;52.092;5.232;2023-01-15T08:00:03;5.97;;;1.63;;
17598;SDS011;8918;52.092;5.232;2023-01-15T08:02:30;5.10;;;1.43;;
17598;SDS011;8918;52.092;5.232;2023-01-15T08:04:55;6.40;;;1.33;;
17598;SDS011;8918;52.092;5.232;2023-01-15T08:07:21;6.67;;;1.27;;
17598;SDS011;8918;52.092;5.232;2023-01-15T08:09:46;6.80;;;1.60;;
17598;SDS011;8918;52.092;5.232;2023-01-15T08:12:12;5.23;;;1.50;;
17598;SDS011;8918;52.092;5.232;2023-01-15T08:14:56;8.57;;;1.63;;
17598;SDS011;8918;52.092;5.232;2023-01-15T08:17:37;11.00;;;2.07;;
17598;SDS011;8918;52.092;5.232;2023-01-15T08:20:17;8.13;;;1.67;;
17598;SDS011;8918;52.092;5.232;2023-01-15T08:22:44;8.23;;;1.60;;
17598;SDS011;8918;52.092;5.232;2023-01-15T08:25:11;6.60;;;1.77;;
17598;SDS011;8918;52.092;5.232;2023-01-15T08:27:39;5.13;;;1.50;;
17598;SDS011;8918;52.092;5.232;2023-01-15T08:30:06;9.83;;;1.50;;
17598;SDS011;8918;52.092;5.232;2023-01-15T08:32:33;7.73;;;1.57;;
17598;SDS011;8918;52.092;5.232;2023-01-15T08:34:59;10.43;;;1.63;;
17598;SDS011;8918;52.092;5.232;2023-01-15T08:37:25;10.23;;;1.80;;
17598;SDS011;8918;52.092;5.232;2023-01-15T08:39:50;10.83;;;1.70;;
17598;SDS011;8918;52.092;5.232;2023-01-15T08:42:17;10.43;;;2.00;;
17598;SDS011;8918;52.092;5.232;2023-01-15T08:44:44;7.87;;;1.80;;
17598;SDS011;8918;52.092;5.232;2023-01-15T08:47:10;7.67;;;1.43;;
17598;SDS011;8918;52.092;5.232;2023-01-15T08:49:35;10.90;;;1.83;;
17598;SDS011;8918;52.092;5.232;2023-01-15T08:52:02;7.70;;;1.63;;
17598;SDS011;8918;52.092;5.232;2023-01-15T08:54:28;9.47;;;1.67;;
17598;SDS011;8918;52.092;5.232;2023-01-15T08:56:54;7.97;;;1.70;;
17598;SDS011;8918;52.092;5.232;2023-01-15T08:59:19;9.03;;;2.10;;
17598;SDS011;8918;52.092;5.232;2023-01-15T09:01:45;6.20;;;1.53;;
17598;SDS011;8918;52.092;5.232;2023-01-15T09:04:12;11.80;;;2.07;;
17598;SDS011;8918;52.092;5.232;2023-01-15T09:06:39;7.73;;;1.63;;
17598;SDS011;8918;52.092;5.232;2023-01-15T09:09:05;7.40;;;2.07;;
17598;SDS011;8918;52.092;5.232;2023-01-15T09:11:30;12.90;;;1.90;;
17598;SDS011;8918;52.092;5.232;2023-01-15T09:13:56;7.30;;;1.60;;
17598;SDS011;8918;52.092;5.232;2023-01-15T09:16:22;7.73;;;1.60;;
17598;SDS011;8918;52.092;5.232;2023-01-15T09:18:47;8.63;;;2.47;;
17598;SDS011;8918;52.092;5.232;2023-01-15T09:21:13;9.87;;;1.97;;
17598;SDS011;8918;52.092;5.232;2023-01-15T09:23:38;6.00;;;1.70;;
17598;SDS011;8918;52.092;5.232;2023-01-15T09:26:04;9.33;;;2.00;;
17598;SDS011;8918;52.092;5.232;2023-01-15T09:28:31;11.33;;;1.87;;
17598;SDS011;8918;52.092;5.232;2023-01-15T09:30:58;6.63;;;1.40;;
17598;SDS011;8918;52.092;5.232;2023-01-15T09:33:24;7.00;;;1.70;;
17598;SDS011;8918;52.092;5.232;2023-01-15T09:35:51;6.70;;;1.57;;
17598;SDS011;8918;52.092;5.232;2023-01-15T09:38:18;7.17;;;1.50;;
17598;SDS011;8918;52.092;5.232;2023-01-15T09:43:17;7.00;;;1.90;;
17598;SDS011;8918;52.092;5.232;2023-01-15T09:48:58;8.57;;;1.80;;
17598;SDS011;8918;52.092;5.232;2023-01-15T09:57:09;8.43;;;1.70;;
17598;SDS011;8918;52.092;5.232;2023-01-15T09:59:38;9.37;;;1.67;;
17598;SDS011;8918;52.092;5.232;2023-01-15T10:02:24;7.33;;;1.93;;
17598;SDS011;8918;52.092;5.232;2023-01-15T10:05:06;7.13;;;1.80;;
17598;SDS011;8918;52.092;5.232;2023-01-15T10:07:41;6.60;;;1.80;;
17598;SDS011;8918;52.092;5.232;2023-01-15T10:10:16;7.13;;;1.87;;
17598;SDS011;8918;52.092;5.232;2023-01-15T10:12:45;6.00;;;1.53;;
17598;SDS011;8918;52.092;5.232;2023-01-15T10:17:38;10.00;;;2.30;;
17598;SDS011;8918;52.092;5.232;2023-01-15T10:20:16;5.20;;;1.40;;
17598;SDS011;8918;52.092;5.232;2023-01-15T10:23:01;10.73;;;1.93;;
17598;SDS011;8918;52.092;5.232;2023-01-15T10:25:50;8.90;;;2.30;;
17598;SDS011;8918;52.092;5.232;2023-01-15T10:28:30;7.63;;;1.87;;
17598;SDS011;8918;52.092;5.232;2023-01-15T10:31:00;8.37;;;1.50;;
17598;SDS011;8918;52.092;5.232;2023-01-15T10:36:41;8.73;;;2.00;;
17598;SDS011;8918;52.092;5.232;2023-01-15T10:39:16;9.53;;;1.73;;
17598;SDS011;8918;52.092;5.232;2023-01-15T10:42:35;6.87;;;1.70;;
17598;SDS011;8918;52.092;5.232;2023-01-15T10:44:55;8.00;;;1.60;;
17598;SDS011;8918;52.092;5.232;2023-01-15T10:47:32;10.67;;;1.80;;
17598;SDS011;8918;52.092;5.232;2023-01-15T10:50:02;13.67;;;2.00;;
17598;SDS011;8918;52.092;5.232;2023-01-15T10:52:34;5.93;;;1.50;;
17598;SDS011;8918;52.092;5.232;2023-01-15T10:57:47;6.83;;;1.70;;
17598;SDS011;8918;52.092;5.232;2023-01-15T11:00:29;7.07;;;1.70;;
17598;SDS011;8918;52.092;5.232;2023-01-15T11:05:39;5.93;;;1.77;;
17598;SDS011;8918;52.092;5.232;2023-01-15T11:08:06;6.97;;;1.70;;
17598;SDS011;8918;52.092;5.232;2023-01-15T11:10:38;9.03;;;1.67;;
17598;SDS011;8918;52.092;5.232;2023-01-15T11:13:15;8.07;;;1.77;;
17598;SDS011;8918;52.092;5.232;2023-01-15T11:16:04;7.97;;;2.00;;
17598;SDS011;8918;52.092;5.232;2023-01-15T11:18:56;8.50;;;2.10;;
17598;SDS011;8918;52.092;5.232;2023-01-15T11:21:45;8.13;;;1.80;;
17598;SDS011;8918;52.092;5.232;2023-01-15T11:24:15;7.37;;;2.07;;
17598;SDS011;8918;52.092;5.232;2023-01-15T11:26:44;8.90;;;2.30;;
17598;SDS011;8918;52.092;5.232;2023-01-15T11:29:15;5.60;;;1.50;;
17598;SDS011;8918;52.092;5.232;2023-01-15T11:32:16;6.73;;;1.73;;
17598;SDS011;8918;52.092;5.232;2023-01-15T11:34:58;6.20;;;2.13;;
17598;SDS011;8918;52.092;5.232;2023-01-15T11:37:26;9.33;;;1.93;;
17598;SDS011;8918;52.092;5.232;2023-01-15T11:39:53;8.93;;;1.80;;
17598;SDS011;8918;52.092;5.232;2023-01-15T11:42:20;10.00;;;1.80;;
17598;SDS011;8918;52.092;5.232;2023-01-15T11:45:10;11.77;;;1.93;;
17598;SDS011;8918;52.092;5.232;2023-01-15T11:47:56;9.33;;;2.00;;
17598;SDS011;8918;52.092;5.232;2023-01-15T11:50:54;8.33;;;1.67;;
17598;SDS011;8918;52.092;5.232;2023-01-15T11:53:28;7.50;;;1.67;;
17598;SDS011;8918;52.092;5.232;2023-01-15T11:55:59;10.87;;;1.80;;
17598;SDS011;8918;52.092;5.232;2023-01-15T11:58:40;8.87;;;2.37;;
17598;SDS011;8918;52.092;5.232;2023-01-15T12:01:13;11.60;;;2.37;;
17598;SDS011;8918;52.092;5.232;2023-01-15T12:03:46;8.17;;;1.90;;
17598;SDS011;8918;52.092;5.232;2023-01-15T12:06:12;8.10;;;1.83;;
17598;SDS011;8918;52.092;5.232;2023-01-15T12:08:45;13.30;;;2.23;;
17598;SDS011;8918;52.092;5.232;2023-01-15T12:11:30;7.07;;;2.20;;
17598;SDS011;8918;52.092;5.232;2023-01-15T12:20:15;7.00;;;1.90;;
17598;SDS011;8918;52.092;5.232;2023-01-15T12:22:49;6.10;;;1.50;;
17598;SDS011;8918;52.092;5.232;2023-01-15T12:28:11;5.97;;;1.87;;
17598;SDS011;8918;52.092;5.232;2023-01-15T12:30:44;8.83;;;2.03;;
17598;SDS011;8918;52.092;5.232;2023-01-15T12:33:34;5.97;;;1.77;;
17598;SDS011;8918;52.092;5.232;2023-01-15T12:38:53;9.40;;;1.90;;
17598;SDS011;8918;52.092;5.232;2023-01-15T12:41:28;7.67;;;1.70;;
17598;SDS011;8918;52.092;5.232;2023-01-15T12:48:11;11.07;;;2.10;;
17598;SDS011;8918;52.092;5.232;2023-01-15T12:59:05;6.60;;;1.83;;
17598;SDS011;8918;52.092;5.232;2023-01-15T13:04:23;7.67;;;2.47;;
17598;SDS011;8918;52.092;5.232;2023-01-15T13:06:55;7.40;;;1.90;;
17598;SDS011;8918;52.092;5.232;2023-01-15T13:09:39;11.73;;;2.20;;
17598;SDS011;8918;52.092;5.232;2023-01-15T13:12:13;15.30;;;2.87;;
17598;SDS011;8918;52.092;5.232;2023-01-15T13:14:40;6.93;;;2.20;;
17598;SDS011;8918;52.092;5.232;2023-01-15T13:17:28;10.07;;;2.23;;
17598;SDS011;8918;52.092;5.232;2023-01-15T13:20:26;8.83;;;2.20;;
17598;SDS011;8918;52.092;5.232;2023-01-15T13:34:26;10.17;;;1.83;;
17598;SDS011;8918;52.092;5.232;2023-01-15T13:37:21;10.33;;;2.13;;
17598;SDS011;8918;52.092;5.232;2023-01-15T13:39:51;13.03;;;2.27;;
17598;SDS011;8918;52.092;5.232;2023-01-15T13:42:21;11.83;;;2.33;;
17598;SDS011;8918;52.092;5.232;2023-01-15T13:45:00;9.23;;;2.33;;
17598;SDS011;8918;52.092;5.232;2023-01-15T13:47:30;9.13;;;2.33;;
17598;SDS011;8918;52.092;5.232;2023-01-15T13:50:03;7.33;;;1.80;;
17598;SDS011;8918;52.092;5.232;2023-01-15T13:52:37;9.07;;;2.47;;
17598;SDS011;8918;52.092;5.232;2023-01-15T13:55:18;10.33;;;4.00;;
17598;SDS011;8918;52.092;5.232;2023-01-15T13:57:51;12.37;;;2.90;;
17598;SDS011;8918;52.092;5.232;2023-01-15T14:02:55;13.17;;;2.73;;
17598;SDS011;8918;52.092;5.232;2023-01-15T14:07:50;7.73;;;2.30;;
17598;SDS011;8918;52.092;5.232;2023-01-15T14:12:50;8.13;;;2.57;;
17598;SDS011;8918;52.092;5.232;2023-01-15T14:16:19;10.67;;;2.23;;
17598;SDS011;8918;52.092;5.232;2023-01-15T14:34:56;12.73;;;2.53;;
17598;SDS011;8918;52.092;5.232;2023-01-15T14:37:37;11.23;;;2.47;;
17598;SDS011;8918;52.092;5.232;2023-01-15T14:40:22;11.50;;;2.37;;
17598;SDS011;8918;52.092;5.232;2023-01-15T14:42:50;11.30;;;2.30;;
17598;SDS011;8918;52.092;5.232;2023-01-15T14:45:33;9.40;;;2.60;;
17598;SDS011;8918;52.092;5.232;2023-01-15T14:48:17;10.97;;;2.30;;
17598;SDS011;8918;52.092;5.232;2023-01-15T14:50:52;12.90;;;2.60;;
17598;SDS011;8918;52.092;5.232;2023-01-15T14:53:29;12.57;;;2.83;;
17598;SDS011;8918;52.092;5.232;2023-01-15T14:56:18;11.00;;;2.50;;
17598;SDS011;8918;52.092;5.232;2023-01-15T15:01:48;10.00;;;2.03;;
17598;SDS011;8918;52.092;5.232;2023-01-15T15:04:32;11.87;;;2.57;;
17598;SDS011;8918;52.092;5.232;2023-01-15T15:07:13;13.53;;;2.30;;
17598;SDS011;8918;52.092;5.232;2023-01-15T15:12:19;12.03;;;2.90;;
17598;SDS011;8918;52.092;5.232;2023-01-15T15:15:00;9.87;;;2.07;;
17598;SDS011;8918;52.092;5.232;2023-01-15T15:23:16;11.40;;;2.87;;
17598;SDS011;8918;52.092;5.232;2023-01-15T15:25:46;10.63;;;3.07;;
17598;SDS011;8918;52.092;5.232;2023-01-15T15:28:19;16.67;;;2.60;;
17598;SDS011;8918;52.092;5.232;2023-01-15T15:30:44;14.83;;;2.83;;
17598;SDS011;8918;52.092;5.232;2023-01-15T15:33:15;10.20;;;2.77;;
17598;SDS011;8918;52.092;5.232;2023-01-15T15:35:44;9.57;;;3.00;;
17598;SDS011;8918;52.092;5.232;2023-01-15T15:38:14;9.27;;;2.93;;
17598;SDS011;8918;52.092;5.232;2023-01-15T15:40:44;11.73;;;2.40;;
17598;SDS011;8918;52.092;5.232;2023-01-15T15:46:00;9.50;;;2.50;;
17598;SDS011;8918;52.092;5.232;2023-01-15T15:48:47;8.40;;;2.20;;
17598;SDS011;8918;52.092;5.232;2023-01-15T15:51:28;7.70;;;2.30;;
17598;SDS011;8918;52.092;5.232;2023-01-15T15:56:35;6.00;;;1.83;;
17598;SDS011;8918;52.092;5.232;2023-01-15T15:59:01;7.70;;;2.10;;
17598;SDS011;8918;52.092;5.232;2023-01-15T16:01:29;7.50;;;2.20;;
17598;SDS011;8918;52.092;5.232;2023-01-15T16:04:00;8.57;;;1.90;;
17598;SDS011;8918;52.092;5.232;2023-01-15T16:06:27;5.13;;;1.83;;
17598;SDS011;8918;52.092;5.232;2023-01-15T16:08:56;6.97;;;1.70;;
17598;SDS011;8918;52.092;5.232;2023-01-15T16:11:29;3.87;;;1.70;;
17598;SDS011;8918;52.092;5.232;2023-01-15T16:13:56;7.03;;;1.83;;
17598;SDS011;8918;52.092;5.232;2023-01-15T16:16:26;6.60;;;1.80;;
17598;SDS011;8918;52.092;5.232;2023-01-15T16:18:53;5.83;;;1.60;;
17598;SDS011;8918;52.092;5.232;2023-01-15T16:21:28;7.70;;;1.80;;
17598;SDS011;8918;52.092;5.232;2023-01-15T16:24:02;7.60;;;2.60;;
17598;SDS011;8918;52.092;5.232;2023-01-15T16:26:33;7.43;;;2.10;;
17598;SDS011;8918;52.092;5.232;2023-01-15T16:29:13;9.93;;;2.50;;
17598;SDS011;8918;52.092;5.232;2023-01-15T16:31:42;8.57;;;2.47;;
17598;SDS011;8918;52.092;5.232;2023-01-15T16:34:22;10.03;;;3.20;;
17598;SDS011;8918;52.092;5.232;2023-01-15T16:37:00;10.70;;;5.90;;
17598;SDS011;8918;52.092;5.232;2023-01-15T16:42:03;5.67;;;2.67;;
17598;SDS011;8918;52.092;5.232;2023-01-15T16:44:50;9.97;;;2.77;;
17598;SDS011;8918;52.092;5.232;2023-01-15T16:47:27;14.23;;;5.13;;
17598;SDS011;8918;52.092;5.232;2023-01-15T16:50:39;14.97;;;5.77;;
17598;SDS011;8918;52.092;5.232;2023-01-15T17:00:36;30.13;;;7.30;;
17598;SDS011;8918;52.092;5.232;2023-01-15T17:03:14;8.87;;;3.13;;
17598;SDS011;8918;52.092;5.232;2023-01-15T17:05:43;9.00;;;2.47;;
17598;SDS011;8918;52.092;5.232;2023-01-15T17:08:23;8.07;;;3.27;;
17598;SDS011;8918;52.092;5.232;2023-01-15T17:10:59;8.50;;;2.77;;
17598;SDS011;8918;52.092;5.232;2023-01-15T17:13:30;7.33;;;2.63;;
17598;SDS011;8918;52.092;5.232;2023-01-15T17:16:20;8.97;;;2.73;;
17598;SDS011;8918;52.092;5.232;2023-01-15T17:18:47;8.27;;;3.13;;
17598;SDS011;8918;52.092;5.232;2023-01-15T17:21:16;7.47;;;2.33;;
17598;SDS011;8918;52.092;5.232;2023-01-15T17:23:52;8.17;;;2.87;;
17598;SDS011;8918;52.092;5.232;2023-01-15T17:26:20;7.50;;;2.20;;
17598;SDS011;8918;52.092;5.232;2023-01-15T17:28:47;8.90;;;2.80;;
17598;SDS011;8918;52.092;5.232;2023-01-15T17:31:18;7.23;;;2.67;;
17598;SDS011;8918;52.092;5.232;2023-01-15T17:33:50;9.83;;;3.07;;
17598;SDS011;8918;52.092;5.232;2023-01-15T17:36:17;6.20;;;2.63;;
17598;SDS011;8918;52.092;5.232;2023-01-15T17:38:43;9.53;;;4.07;;
17598;SDS011;8918;52.092;5.232;2023-01-15T17:41:12;4.70;;;2.10;;